createdAt,value
2023-05-09T00:00:53.532Z,25.00
2023-05-09T00:03:20.509Z,24.50
2023-05-09T00:05:47.476Z,27.50
2023-05-09T00:08:14.317Z,28.00
2023-05-09T00:10:41.419Z,26.00
2023-05-09T00:13:08.315Z,25.00
2023-05-09T00:15:35.171Z,24.50
2023-05-09T00:18:02.132Z,24.00
2023-05-09T00:20:29.155Z,24.00
2023-05-09T00:22:56.054Z,26.50
2023-05-09T00:25:23.078Z,28.25
2023-05-09T00:27:49.918Z,24.00
2023-05-09T00:30:16.872Z,27.00
2023-05-09T00:32:43.928Z,29.00
2023-05-09T00:35:10.859Z,28.00
2023-05-09T00:37:37.710Z,27.00
2023-05-09T00:40:06.334Z,22.50
2023-05-09T00:42:33.677Z,28.00
2023-05-09T00:45:00.592Z,29.00
2023-05-09T00:47:30.628Z,23.75
2023-05-09T00:49:58.385Z,24.00
2023-05-09T00:52:26.309Z,27.00
2023-05-09T00:54:54.612Z,26.00
2023-05-09T00:57:22.672Z,22.50
2023-05-09T00:59:49.984Z,27.50
2023-05-09T01:02:20.201Z,27.00
2023-05-09T01:04:47.747Z,27.75
2023-05-09T01:07:14.608Z,27.50
2023-05-09T01:10:04.938Z,26.75
2023-05-09T01:12:42.019Z,22.00
2023-05-09T01:15:08.995Z,27.50
2023-05-09T01:17:44.906Z,28.75
2023-05-09T01:20:26.699Z,25.00
2023-05-09T01:23:12.215Z,22.00
2023-05-09T01:26:00.873Z,21.50
2023-05-09T01:28:49.724Z,27.00
2023-05-09T01:31:17.385Z,28.25
2023-05-09T01:33:48.689Z,27.25
2023-05-09T01:36:18.182Z,24.00
2023-05-09T01:38:48.841Z,25.75
2023-05-09T01:41:18.101Z,26.00
2023-05-09T01:43:47.431Z,27.25
2023-05-09T01:46:18.324Z,22.75
2023-05-09T01:48:46.706Z,21.00
2023-05-09T01:51:15.658Z,21.25
2023-05-09T01:53:44.427Z,25.00
2023-05-09T01:56:12.898Z,26.00
2023-05-09T01:58:41.205Z,24.00
2023-05-09T02:01:10.128Z,23.00
2023-05-09T02:03:39.212Z,27.00
2023-05-09T02:06:07.283Z,27.00
2023-05-09T02:08:35.291Z,24.25
2023-05-09T02:11:02.201Z,21.00
2023-05-09T02:13:29.652Z,22.00
2023-05-09T02:15:57.454Z,26.00
2023-05-09T02:18:24.304Z,24.25
2023-05-09T02:20:51.228Z,24.50
2023-05-09T02:23:18.342Z,27.75
2023-05-09T02:25:46.797Z,22.00
2023-05-09T02:28:14.134Z,24.00
2023-05-09T02:30:44.418Z,23.75
2023-05-09T02:33:13.921Z,23.25
2023-05-09T02:35:44.189Z,27.00
2023-05-09T02:38:13.411Z,26.25
2023-05-09T02:40:43.646Z,28.00
2023-05-09T02:43:10.736Z,29.00
2023-05-09T02:45:37.613Z,27.00
2023-05-09T02:48:06.908Z,24.25
2023-05-09T02:50:35.350Z,28.00
2023-05-09T02:53:02.240Z,30.25
2023-05-09T02:55:29.197Z,30.00
2023-05-09T02:58:09.262Z,30.00
2023-05-09T03:00:40.446Z,30.00
2023-05-09T03:03:08.196Z,33.00
2023-05-09T03:05:35.225Z,33.75
2023-05-09T03:08:02.187Z,35.00
2023-05-09T03:10:29.226Z,36.50
2023-05-09T03:12:56.310Z,36.00
2023-05-09T03:15:23.540Z,35.50
2023-05-09T03:17:50.636Z,36.00
2023-05-09T03:20:17.758Z,37.00
2023-05-09T03:22:44.660Z,36.50
2023-05-09T03:25:12.553Z,36.50
2023-05-09T03:27:39.859Z,37.00
2023-05-09T03:30:11.352Z,37.75
2023-05-09T03:32:39.129Z,39.25
2023-05-09T03:35:06.363Z,40.00
2023-05-09T03:37:33.628Z,38.50
2023-05-09T03:40:00.482Z,37.50
2023-05-09T03:42:28.189Z,38.75
2023-05-09T03:44:59.310Z,39.00
2023-05-09T03:47:26.445Z,39.25
2023-05-09T03:49:53.633Z,39.00
2023-05-09T03:52:23.040Z,38.25
2023-05-09T03:54:49.938Z,37.50
2023-05-09T03:57:17.811Z,38.00
2023-05-09T03:59:46.728Z,36.50
2023-05-09T04:02:15.222Z,36.50
2023-05-09T04:04:43.526Z,37.00
2023-05-09T04:07:11.202Z,35.50
2023-05-09T04:09:38.170Z,37.00
2023-05-09T04:12:05.310Z,37.00
2023-05-09T04:14:32.602Z,37.00
2023-05-09T04:16:59.706Z,36.00
2023-05-09T04:19:26.650Z,37.00
2023-05-09T04:21:53.595Z,36.00
2023-05-09T04:24:20.394Z,36.00
2023-05-09T04:26:48.638Z,36.00
2023-05-09T04:29:19.992Z,37.00
2023-05-09T04:31:51.509Z,36.00
2023-05-09T04:34:19.711Z,35.50
2023-05-09T04:36:46.672Z,35.00
2023-05-09T04:39:32.516Z,35.00
2023-05-09T04:42:06.233Z,34.50
2023-05-09T04:44:33.289Z,35.00
2023-05-09T04:47:00.682Z,35.00
2023-05-09T04:49:28.177Z,35.00
2023-05-09T04:51:55.085Z,35.00
2023-05-09T04:54:21.998Z,35.75
2023-05-09T04:56:53.137Z,36.00
2023-05-09T04:59:20.833Z,36.00
2023-05-09T05:01:47.893Z,36.00
2023-05-09T05:04:15.099Z,35.00
2023-05-09T05:06:42.277Z,35.00
2023-05-09T05:09:09.386Z,35.00
2023-05-09T05:11:36.241Z,36.00
2023-05-09T05:14:04.761Z,38.00
2023-05-09T05:16:31.798Z,37.00
2023-05-09T05:18:59.590Z,35.00
2023-05-09T05:21:26.753Z,35.50
2023-05-09T05:23:53.650Z,34.50
2023-05-09T05:26:21.061Z,34.50
2023-05-09T05:28:48.506Z,34.00
2023-05-09T05:31:15.384Z,35.00
2023-05-09T05:33:42.303Z,34.00
2023-05-09T05:36:09.569Z,34.00
2023-05-09T05:38:36.608Z,33.50
2023-05-09T05:41:04.051Z,34.00
2023-05-09T05:43:31.191Z,35.00
2023-05-09T05:45:58.205Z,37.75
2023-05-09T05:48:27.651Z,37.50
2023-05-09T05:50:55.242Z,36.00
2023-05-09T05:53:25.880Z,35.50
2023-05-09T05:55:55.116Z,35.00
2023-05-09T05:58:23.929Z,35.50
2023-05-09T06:00:52.449Z,35.00
2023-05-09T06:03:19.560Z,33.50
2023-05-09T06:05:51.294Z,33.75
2023-05-09T06:08:36.762Z,34.50
2023-05-09T06:11:03.744Z,34.50
2023-05-09T06:13:30.632Z,35.00
2023-05-09T06:16:14.964Z,36.50
2023-05-09T06:18:45.369Z,34.00
2023-05-09T06:21:13.248Z,34.00
2023-05-09T06:23:44.766Z,33.00
2023-05-09T06:26:24.502Z,33.00
2023-05-09T06:28:51.355Z,33.50
2023-05-09T06:31:18.346Z,34.00
2023-05-09T06:33:45.459Z,34.00
2023-05-09T06:36:12.409Z,33.50
2023-05-09T06:38:39.355Z,33.25
2023-05-09T06:41:06.300Z,34.00
2023-05-09T06:43:33.202Z,33.00
2023-05-09T06:46:00.132Z,33.00
2023-05-09T06:48:27.138Z,32.25
2023-05-09T06:50:54.179Z,32.00
2023-05-09T06:53:21.142Z,31.50
2023-05-09T06:55:48.128Z,32.50
2023-05-09T06:58:15.054Z,32.50
2023-05-09T07:00:42.142Z,34.00
2023-05-09T07:03:09.318Z,34.00
2023-05-09T07:05:36.276Z,33.00
2023-05-09T07:08:03.212Z,34.25
2023-05-09T07:10:30.436Z,35.00
2023-05-09T07:12:57.698Z,33.00
2023-05-09T07:15:39.769Z,33.25
2023-05-09T07:18:08.689Z,34.00
2023-05-09T07:20:35.749Z,34.00
2023-05-09T07:23:05.647Z,35.00
2023-05-09T07:25:32.778Z,34.00
2023-05-09T07:27:59.904Z,35.00
2023-05-09T07:30:26.911Z,33.50
2023-05-09T07:32:53.951Z,34.00
2023-05-09T07:35:21.076Z,34.00
2023-05-09T07:37:49.867Z,34.00
2023-05-09T07:40:16.935Z,34.50
2023-05-09T07:42:43.960Z,34.50
2023-05-09T07:45:11.039Z,34.00
2023-05-09T07:47:38.220Z,33.00
2023-05-09T07:50:05.703Z,34.00
2023-05-09T07:52:51.318Z,34.50
2023-05-09T07:55:18.739Z,34.00
2023-05-09T07:57:45.850Z,34.00
2023-05-09T08:00:13.387Z,33.00
2023-05-09T08:02:40.304Z,35.00
2023-05-09T08:05:08.271Z,36.00
2023-05-09T08:07:35.143Z,36.00
2023-05-09T08:10:02.316Z,36.00
2023-05-09T08:12:29.268Z,34.50
2023-05-09T08:14:56.483Z,36.00
2023-05-09T08:17:26.650Z,34.00
2023-05-09T08:20:13.127Z,34.00
2023-05-09T08:22:40.743Z,35.75
2023-05-09T08:25:10.945Z,34.00
2023-05-09T08:27:38.877Z,36.50
2023-05-09T08:30:06.597Z,35.50
2023-05-09T08:32:33.729Z,36.00
2023-05-09T08:35:00.678Z,39.25
2023-05-09T08:37:27.778Z,37.00
2023-05-09T08:39:54.607Z,36.00
2023-05-09T08:42:24.684Z,36.00
2023-05-09T08:44:53.254Z,35.00
2023-05-09T08:47:21.407Z,34.75
2023-05-09T08:49:50.231Z,35.00
2023-05-09T08:52:35.879Z,35.00
2023-05-09T08:55:04.036Z,35.00
2023-05-09T08:57:33.322Z,36.00
2023-05-09T09:00:21.139Z,36.00
2023-05-09T09:02:49.099Z,35.00
2023-05-09T09:05:39.551Z,34.50
2023-05-09T09:08:03.915Z,33.75
2023-05-09T09:10:32.916Z,34.25
2023-05-09T09:13:01.278Z,35.00
2023-05-09T09:15:33.940Z,36.00
2023-05-09T09:18:09.205Z,33.50
2023-05-09T09:20:41.294Z,34.00
2023-05-09T09:23:09.656Z,34.50
2023-05-09T09:25:39.189Z,35.00
2023-05-09T09:28:24.746Z,33.50
2023-05-09T09:30:52.133Z,34.00
2023-05-09T09:33:23.286Z,34.00
2023-05-09T09:35:55.409Z,33.50
2023-05-09T09:38:41.679Z,34.00
2023-05-09T09:41:08.636Z,34.00
2023-05-09T09:43:35.447Z,36.00
2023-05-09T09:46:06.020Z,37.00
2023-05-09T09:48:35.011Z,36.00
2023-05-09T09:51:09.491Z,35.00
2023-05-09T09:53:43.393Z,35.25
2023-05-09T09:56:10.899Z,35.00
2023-05-09T09:58:37.936Z,37.00
2023-05-09T10:01:10.447Z,34.50
2023-05-09T10:03:42.234Z,35.50
2023-05-09T10:06:16.396Z,36.00
2023-05-09T10:08:46.011Z,36.00
2023-05-09T10:11:13.168Z,35.50
2023-05-09T10:13:40.153Z,34.00
2023-05-09T10:16:09.114Z,35.00
2023-05-09T10:18:36.769Z,36.00
2023-05-09T10:21:05.732Z,35.50
2023-05-09T10:23:38.460Z,35.00
2023-05-09T10:26:08.883Z,34.00
2023-05-09T10:28:38.946Z,34.00
2023-05-09T10:31:25.328Z,34.00
2023-05-09T10:33:52.550Z,34.25
2023-05-09T10:36:20.885Z,35.00
2023-05-09T10:38:54.545Z,36.00
2023-05-09T10:41:22.367Z,37.00
2023-05-09T10:43:49.507Z,36.00
2023-05-09T10:46:17.005Z,37.00
2023-05-09T10:48:45.087Z,37.00
2023-05-09T10:51:13.264Z,35.50
2023-05-09T10:53:48.851Z,36.00
2023-05-09T10:56:36.113Z,35.00
2023-05-09T10:59:03.232Z,36.25
2023-05-09T11:01:38.483Z,36.00
2023-05-09T11:04:12.585Z,36.00
2023-05-09T11:06:42.284Z,35.25
2023-05-09T11:09:25.876Z,35.00
2023-05-09T11:11:55.055Z,36.00
2023-05-09T11:14:44.744Z,36.25
2023-05-09T11:17:13.298Z,35.50
2023-05-09T11:19:43.233Z,36.25
2023-05-09T11:22:29.527Z,35.00
2023-05-09T11:24:59.583Z,36.50
2023-05-09T11:27:28.498Z,36.00
2023-05-09T11:30:04.630Z,35.50
2023-05-09T11:32:32.689Z,35.00
2023-05-09T11:35:28.450Z,36.00
2023-05-09T11:38:05.745Z,36.00
2023-05-09T11:40:34.549Z,35.50
2023-05-09T11:43:02.233Z,35.00
2023-05-09T11:45:31.376Z,37.00
2023-05-09T11:47:59.026Z,35.00
2023-05-09T11:50:52.297Z,36.00
2023-05-09T11:53:19.318Z,35.50
2023-05-09T11:55:46.369Z,36.00
2023-05-09T11:58:13.672Z,35.75
2023-05-09T12:00:46.589Z,34.50
2023-05-09T12:03:14.194Z,34.50
2023-05-09T12:05:41.592Z,36.00
2023-05-09T12:08:09.034Z,35.50
2023-05-09T12:10:39.492Z,36.00
2023-05-09T12:13:06.499Z,36.25
2023-05-09T12:15:38.339Z,35.00
2023-05-09T12:18:07.414Z,36.00
2023-05-09T12:20:50.186Z,36.00
2023-05-09T12:23:17.253Z,36.00
2023-05-09T12:25:54.700Z,34.00
2023-05-09T12:28:27.708Z,33.50
2023-05-09T12:30:55.196Z,34.75
2023-05-09T12:33:22.447Z,35.50
2023-05-09T12:36:02.800Z,36.50
2023-05-09T12:38:29.798Z,36.00
2023-05-09T12:43:41.894Z,35.00
2023-05-09T12:46:08.779Z,36.00
2023-05-09T12:48:38.229Z,34.75
2023-05-09T12:51:06.445Z,36.00
2023-05-09T12:53:39.306Z,33.50
2023-05-09T12:56:13.236Z,35.00
2023-05-09T12:58:40.372Z,34.00
2023-05-09T13:01:07.271Z,35.50
2023-05-09T13:03:34.455Z,36.00
2023-05-09T13:06:02.116Z,35.50
2023-05-09T13:08:29.687Z,34.00
2023-05-09T13:11:07.903Z,35.00
2023-05-09T13:13:42.546Z,34.00
2023-05-09T13:16:10.747Z,35.00
2023-05-09T13:18:39.106Z,35.50
2023-05-09T13:21:06.053Z,35.50
2023-05-09T13:23:33.006Z,36.00
2023-05-09T13:25:59.827Z,35.00
2023-05-09T13:28:26.814Z,34.50
2023-05-09T13:30:53.758Z,34.50
2023-05-09T13:35:51.514Z,34.00
2023-05-09T13:38:18.395Z,34.00
2023-05-09T13:40:45.291Z,35.00
2023-05-09T13:43:12.156Z,34.00
2023-05-09T13:45:39.059Z,34.50
2023-05-09T13:48:06.340Z,34.00
2023-05-09T13:50:34.528Z,35.75
2023-05-09T13:53:01.445Z,35.50
2023-05-09T13:55:28.418Z,35.00
2023-05-09T13:57:55.358Z,33.75
2023-05-09T14:00:22.873Z,34.00
2023-05-09T14:02:49.758Z,35.00
2023-05-09T14:05:16.964Z,36.00
2023-05-09T14:07:44.443Z,34.50
2023-05-09T14:10:12.478Z,35.00
2023-05-09T14:12:40.761Z,34.00
2023-05-09T14:15:08.465Z,33.00
2023-05-09T14:17:35.778Z,33.50
2023-05-09T14:20:02.724Z,33.00
2023-05-09T14:22:29.609Z,33.00
2023-05-09T14:24:56.488Z,34.50
2023-05-09T14:27:23.514Z,34.50
2023-05-09T14:29:50.405Z,34.00
2023-05-09T14:32:17.210Z,36.00
2023-05-09T14:34:44.118Z,36.00
2023-05-09T14:37:11.600Z,36.00
2023-05-09T14:39:38.558Z,35.00
2023-05-09T14:42:05.484Z,34.00
2023-05-09T14:44:32.338Z,35.00
2023-05-09T14:46:59.255Z,35.00
2023-05-09T14:49:26.167Z,32.50
2023-05-09T14:51:53.069Z,34.75
2023-05-09T14:54:19.943Z,33.50
2023-05-09T14:56:47.976Z,33.50
2023-05-09T14:59:15.002Z,33.00
2023-05-09T15:01:41.996Z,33.00
2023-05-09T15:04:09.049Z,33.75
2023-05-09T15:06:36.050Z,34.00
2023-05-09T15:09:03.190Z,33.50
2023-05-09T15:11:36.399Z,33.50
2023-05-09T15:14:15.866Z,33.00
2023-05-09T15:16:42.771Z,30.75
2023-05-09T15:19:09.893Z,31.50
2023-05-09T15:21:36.805Z,31.50
2023-05-09T15:24:04.934Z,34.00
2023-05-09T15:26:31.888Z,34.00
2023-05-09T15:28:58.852Z,34.75
2023-05-09T15:31:26.017Z,34.00
2023-05-09T15:33:53.125Z,34.00
2023-05-09T15:36:19.977Z,33.00
2023-05-09T15:38:46.938Z,33.00
2023-05-09T15:41:13.875Z,33.00
2023-05-09T15:43:41.003Z,32.00
2023-05-09T15:46:07.947Z,32.00
2023-05-09T15:48:34.872Z,33.00
2023-05-09T15:51:02.060Z,33.50
2023-05-09T15:53:30.123Z,33.00
2023-05-09T15:56:01.466Z,33.00
2023-05-09T15:58:29.627Z,33.00
2023-05-09T16:00:56.870Z,33.00
2023-05-09T16:03:26.985Z,31.25
2023-05-09T16:05:54.256Z,33.00
2023-05-09T16:08:21.310Z,33.00
2023-05-09T16:10:48.359Z,33.50
2023-05-09T16:13:16.660Z,32.00
2023-05-09T16:15:44.539Z,33.00
2023-05-09T16:18:11.591Z,33.00
2023-05-09T16:20:43.720Z,33.00
2023-05-09T16:23:11.226Z,33.00
2023-05-09T16:25:40.756Z,33.00
2023-05-09T16:28:07.843Z,33.00
2023-05-09T16:30:34.888Z,32.00
2023-05-09T16:33:03.655Z,32.75
2023-05-09T16:35:30.618Z,33.00
2023-05-09T16:37:57.670Z,32.00
2023-05-09T16:40:24.742Z,33.00
2023-05-09T16:42:51.761Z,33.00
2023-05-09T16:45:18.799Z,32.00
2023-05-09T16:47:46.000Z,32.50
2023-05-09T16:50:13.152Z,33.00
2023-05-09T16:52:40.242Z,34.50
2023-05-09T16:55:07.585Z,32.50
2023-05-09T16:57:34.622Z,33.00
2023-05-09T17:00:01.502Z,33.00
2023-05-09T17:02:28.539Z,32.50
2023-05-09T17:04:58.206Z,33.50
2023-05-09T17:07:28.150Z,32.25
2023-05-09T17:09:57.109Z,32.50
2023-05-09T17:12:27.227Z,32.00
2023-05-09T17:14:54.254Z,32.75
2023-05-09T17:17:21.839Z,32.25
2023-05-09T17:19:52.401Z,32.50
2023-05-09T17:22:21.823Z,32.50
2023-05-09T17:24:53.936Z,33.00
2023-05-09T17:27:21.361Z,32.50
2023-05-09T17:29:50.591Z,32.00
2023-05-09T17:32:17.612Z,32.50
2023-05-09T17:34:44.612Z,33.00
2023-05-09T17:37:11.645Z,33.00
2023-05-09T17:39:38.905Z,33.00
2023-05-09T17:42:06.939Z,32.75
2023-05-09T17:44:37.229Z,32.00
2023-05-09T17:47:04.541Z,32.00
2023-05-09T17:49:31.429Z,31.25
2023-05-09T17:52:01.157Z,34.00
2023-05-09T17:54:28.421Z,32.50
2023-05-09T17:56:55.557Z,32.00
2023-05-09T17:59:23.132Z,33.00
2023-05-09T18:01:51.287Z,33.00
2023-05-09T18:04:18.312Z,33.00
2023-05-09T18:06:45.211Z,33.50
2023-05-09T18:09:13.388Z,33.50
2023-05-09T18:11:40.276Z,33.00
2023-05-09T18:14:07.152Z,34.00
2023-05-09T18:16:35.024Z,33.00
2023-05-09T18:19:02.051Z,33.00
2023-05-09T18:21:28.928Z,34.00
2023-05-09T18:23:55.875Z,34.00
2023-05-09T18:26:22.691Z,33.00
2023-05-09T18:28:49.533Z,32.00
2023-05-09T18:31:17.095Z,32.00
2023-05-09T18:33:44.187Z,32.00
2023-05-09T18:36:11.539Z,33.00
2023-05-09T18:38:39.130Z,31.50
2023-05-09T18:41:07.915Z,32.00
2023-05-09T18:43:35.768Z,33.00
2023-05-09T18:46:02.736Z,32.00
2023-05-09T18:48:29.714Z,33.00
2023-05-09T18:50:56.886Z,32.00
2023-05-09T18:53:23.900Z,33.00
2023-05-09T18:55:50.898Z,33.00
2023-05-09T18:58:17.981Z,32.00
2023-05-09T19:00:47.648Z,31.00
2023-05-09T19:03:14.721Z,32.75
2023-05-09T19:05:43.653Z,32.00
2023-05-09T19:08:11.455Z,32.50
2023-05-09T19:10:38.444Z,32.25
2023-05-09T19:13:05.470Z,32.00
2023-05-09T19:15:32.632Z,33.00
2023-05-09T19:17:59.527Z,30.50
2023-05-09T19:20:26.506Z,32.50
2023-05-09T19:22:53.366Z,32.00
2023-05-09T19:25:20.340Z,32.00
2023-05-09T19:27:50.261Z,31.00
2023-05-09T19:30:17.327Z,31.75
2023-05-09T19:32:44.704Z,30.00
2023-05-09T19:35:11.641Z,32.75
2023-05-09T19:37:38.771Z,32.00
2023-05-09T19:40:06.794Z,32.00
2023-05-09T19:42:35.777Z,32.00
2023-05-09T19:45:04.191Z,31.00
2023-05-09T19:47:32.839Z,32.50
2023-05-09T19:49:59.804Z,32.00
2023-05-09T19:52:26.688Z,32.75
2023-05-09T19:54:53.675Z,31.00
2023-05-09T19:57:20.532Z,31.00
2023-05-09T19:59:47.411Z,31.00
2023-05-09T20:02:14.428Z,31.00
2023-05-09T20:04:42.586Z,31.00
2023-05-09T20:07:10.616Z,31.00
2023-05-09T20:09:37.460Z,31.00
2023-05-09T20:12:04.647Z,31.50
2023-05-09T20:14:31.468Z,31.00
2023-05-09T20:16:58.496Z,32.00
2023-05-09T20:19:25.567Z,32.00
2023-05-09T20:21:52.545Z,32.00
2023-05-09T20:24:20.019Z,33.00
2023-05-09T20:26:46.963Z,32.00
2023-05-09T20:29:14.694Z,32.00
2023-05-09T20:31:41.606Z,32.00
2023-05-09T20:34:09.545Z,33.25
2023-05-09T20:36:39.468Z,32.00
2023-05-09T20:39:06.271Z,30.75
2023-05-09T20:41:33.287Z,32.00
2023-05-09T20:44:03.576Z,31.25
2023-05-09T20:46:38.814Z,32.75
2023-05-09T20:49:08.794Z,32.00
2023-05-09T20:51:35.742Z,31.50
2023-05-09T20:54:04.227Z,31.00
2023-05-09T20:56:34.193Z,32.00
2023-05-09T20:59:05.624Z,33.75
2023-05-09T21:01:37.612Z,33.50
2023-05-09T21:04:04.957Z,32.00
2023-05-09T21:06:31.826Z,31.00
2023-05-09T21:08:59.086Z,32.00
2023-05-09T21:11:26.032Z,31.00
2023-05-09T21:13:55.447Z,32.00
2023-05-09T21:16:22.627Z,31.00
2023-05-09T21:18:49.567Z,31.00
2023-05-09T21:21:16.486Z,32.00
2023-05-09T21:23:49.323Z,32.00
2023-05-09T21:26:31.247Z,31.50
2023-05-09T21:28:58.266Z,32.00
2023-05-09T21:31:25.320Z,32.75
2023-05-09T21:33:54.070Z,32.00
2023-05-09T21:36:23.697Z,32.00
2023-05-09T21:38:50.818Z,32.00
2023-05-09T21:41:21.571Z,31.00
2023-05-09T21:43:50.357Z,30.00
2023-05-09T21:46:17.292Z,31.50
2023-05-09T21:48:45.782Z,32.25
2023-05-09T21:51:12.836Z,33.50
2023-05-09T21:53:43.008Z,34.00
2023-05-09T21:56:09.927Z,32.00
2023-05-09T21:58:36.866Z,31.00
2023-05-09T22:01:03.829Z,30.00
2023-05-09T22:03:30.969Z,30.50
2023-05-09T22:05:57.933Z,30.25
2023-05-09T22:08:24.759Z,31.00
2023-05-09T22:10:51.635Z,31.00
2023-05-09T22:13:18.814Z,32.00
2023-05-09T22:15:45.764Z,30.00
2023-05-09T22:18:12.730Z,30.50
2023-05-09T22:20:39.725Z,32.00
2023-05-09T22:23:06.666Z,29.75
2023-05-09T22:25:33.522Z,31.00
2023-05-09T22:28:00.457Z,31.00
2023-05-09T22:30:27.418Z,31.00
2023-05-09T22:32:54.449Z,30.00
2023-05-09T22:35:21.414Z,31.00
2023-05-09T22:37:48.253Z,31.00
2023-05-09T22:40:15.511Z,31.00
2023-05-09T22:42:42.542Z,31.00
2023-05-09T22:45:09.786Z,30.50
2023-05-09T22:47:36.719Z,31.00
2023-05-09T22:50:03.720Z,30.00
2023-05-09T22:52:30.559Z,30.00
2023-05-09T22:54:57.573Z,29.00
2023-05-09T22:57:24.517Z,31.00
2023-05-09T22:59:51.384Z,31.25
2023-05-09T23:02:18.308Z,28.00
2023-05-09T23:04:45.282Z,27.75
2023-05-09T23:07:12.837Z,29.25
2023-05-09T23:09:39.808Z,31.00
2023-05-09T23:12:08.401Z,30.75
2023-05-09T23:14:35.356Z,31.00
2023-05-09T23:17:02.303Z,32.00
2023-05-09T23:19:29.216Z,31.00
2023-05-09T23:21:56.056Z,31.00
2023-05-09T23:24:22.956Z,30.00
2023-05-09T23:26:49.884Z,30.00
2023-05-09T23:29:16.776Z,31.00
2023-05-09T23:31:43.635Z,30.00
2023-05-09T23:34:10.483Z,28.75
2023-05-09T23:36:37.313Z,29.00
2023-05-09T23:39:04.277Z,31.00
2023-05-09T23:41:31.122Z,31.00
2023-05-09T23:43:58.015Z,29.00
2023-05-09T23:46:24.981Z,30.00
2023-05-09T23:48:51.990Z,30.00
2023-05-09T23:51:18.866Z,30.00
2023-05-09T23:53:45.791Z,30.00
2023-05-09T23:56:12.702Z,30.75
2023-05-09T23:58:39.921Z,29.50
